Time;durP1;ratioP1;P1;durP2;ratioP2;P2;SDS_P1;SDS_P2;PMS_P1;PMS_P2;Temp;Humidity;BMP_temperature;BMP_pressure;BME280_temperature;BME280_humidity;BME280_pressure;Samples;Min_cycle;Max_cycle;Signal;HPM_P1;HPM_P2
2022/11/02 00:02:09;;;;;;;;;;;7.30;99.90;;;;;;4936333;28;19911;-76
2022/11/02 00:04:35;;;;;;;;;;;7.20;99.90;;;;;;4955153;28;20461;-76
2022/11/02 00:07:00;;;;;;;;;;;7.20;99.90;;;;;;4954433;28;20353;-76
2022/11/02 00:09:26;;;;;;;;;;;7.20;99.90;;;;;;4933284;28;19935;-76
2022/11/02 00:11:51;;;;;;;;;;;7.20;99.90;;;;;;4950169;28;20000;-76
2022/11/02 00:14:16;;;;;;;;;;;7.20;99.90;;;;;;4957024;28;19910;-76
2022/11/02 00:16:42;;;;;;;;;;;7.10;99.90;;;;;;4955424;28;20543;-76
2022/11/02 00:19:08;;;;;;;;;;;7.20;99.90;;;;;;4954620;28;19920;-76
2022/11/02 00:21:34;;;;;;;;;;;7.20;99.90;;;;;;4960481;28;20013;-76
2022/11/02 00:24:00;;;;;;;;;;;7.20;99.90;;;;;;4949806;29;20005;-76
2022/11/02 00:26:26;;;;;;;;;;;7.20;99.90;;;;;;4940682;28;19907;-76
2022/11/02 00:28:52;;;;;;;;;;;7.20;99.90;;;;;;4940363;28;19913;-76
2022/11/02 00:31:17;;;;;;;;;;;7.20;99.90;;;;;;4952321;28;20305;-76
2022/11/02 00:33:43;;;;;;;;;;;7.20;99.90;;;;;;4956827;28;19917;-75
2022/11/02 00:36:08;;;;;;;;;;;7.10;99.90;;;;;;4946737;28;20369;-76
2022/11/02 00:38:33;;;;;;;;;;;7.10;99.90;;;;;;4943750;28;19914;-76
2022/11/02 00:40:59;;;;;;;;;;;7.00;99.90;;;;;;4947366;28;20038;-76
2022/11/02 00:43:24;;;;;;;;;;;7.00;99.90;;;;;;4936082;28;19911;-76
2022/11/02 00:45:49;;;;;;;;;;;7.00;99.90;;;;;;4950823;28;19994;-76
2022/11/02 00:48:15;;;;;;;;;;;7.00;99.90;;;;;;4956373;28;20041;-76
2022/11/02 00:50:40;;;;;;;;;;;7.10;99.90;;;;;;4955604;28;19918;-76
2022/11/02 00:53:06;;;;;;;;;;;7.10;99.90;;;;;;4945717;28;19911;-76
2022/11/02 00:55:31;;;;;;;;;;;7.00;99.90;;;;;;4944874;28;19910;-77
2022/11/02 00:57:57;;;;;;;;;;;7.00;99.90;;;;;;4962359;28;19968;-77
2022/11/02 01:00:22;;;;;;;;;;;7.00;99.90;;;;;;4958502;28;19918;-76
2022/11/02 01:02:47;;;;;;;;;;;6.90;99.90;;;;;;4949369;28;19954;-76
2022/11/02 01:05:13;;;;;;;;;;;6.80;99.90;;;;;;4948003;28;19914;-76
2022/11/02 01:07:38;;;;;;;;;;;6.90;99.90;;;;;;4953838;28;19917;-77
2022/11/02 01:10:05;;;;;;;;;;;6.90;99.90;;;;;;4958675;28;19932;-77
2022/11/02 01:12:30;;;;;;;;;;;6.90;99.90;;;;;;4945550;28;19921;-76
2022/11/02 01:14:55;;;;;;;;;;;6.90;99.90;;;;;;4943237;28;19911;-77
2022/11/02 01:17:21;;;;;;;;;;;6.90;99.90;;;;;;4944832;29;20388;-76
2022/11/02 01:19:46;;;;;;;;;;;6.80;99.90;;;;;;4947785;28;19921;-76
2022/11/02 01:22:12;;;;;;;;;;;6.90;99.90;;;;;;4939583;28;19918;-77
2022/11/02 01:24:37;;;;;;;;;;;6.90;99.90;;;;;;4956239;28;19990;-77
2022/11/02 01:27:03;;;;;;;;;;;7.00;99.90;;;;;;4948559;28;19910;-76
2022/11/02 01:29:28;;;;;;;;;;;6.90;99.90;;;;;;4947434;28;19914;-76
2022/11/02 01:31:53;;;;;;;;;;;6.90;99.90;;;;;;4938804;29;20308;-76
2022/11/02 01:34:19;;;;;;;;;;;6.90;99.90;;;;;;4951347;28;19911;-76
2022/11/02 01:36:45;;;;;;;;;;;7.00;99.90;;;;;;4958068;28;20353;-77
2022/11/02 01:39:11;;;;;;;;;;;7.00;99.90;;;;;;4959804;28;19917;-77
2022/11/02 01:41:36;;;;;;;;;;;7.10;99.90;;;;;;4948348;28;19995;-77
2022/11/02 01:44:02;;;;;;;;;;;7.40;99.90;;;;;;4941010;28;19910;-77
2022/11/02 01:46:35;;;;;;;;;;;7.60;99.90;;;;;;4938693;28;19979;-77
2022/11/02 01:49:04;;;;;;;;;;;7.60;99.90;;;;;;4956786;28;19917;-77
2022/11/02 01:51:34;;;;;;;;;;;7.60;99.90;;;;;;4943977;28;19911;-77
2022/11/02 01:54:08;;;;;;;;;;;7.60;99.90;;;;;;4945798;28;20349;-76
2022/11/02 01:56:34;;;;;;;;;;;7.50;99.90;;;;;;4943349;29;19969;-77
2022/11/02 01:59:02;;;;;;;;;;;7.40;99.90;;;;;;4946350;28;20416;-77
2022/11/02 02:01:28;;;;;;;;;;;7.20;99.90;;;;;;4952293;28;19965;-77
2022/11/02 02:03:55;;;;;;;;;;;7.20;99.90;;;;;;4961009;28;20510;-77
2022/11/02 02:06:21;;;;;;;;;;;7.20;99.90;;;;;;4933772;29;20001;-77
2022/11/02 02:08:48;;;;;;;;;;;7.10;99.90;;;;;;4955659;28;20008;-77
2022/11/02 02:11:31;;;;;;;;;;;7.10;99.90;;;;;;4943825;28;19914;-77
2022/11/02 02:14:03;;;;;;;;;;;7.30;99.90;;;;;;4950682;28;19917;-77
2022/11/02 02:16:31;;;;;;;;;;;7.10;99.90;;;;;;4945464;28;20089;-76
2022/11/02 02:18:58;;;;;;;;;;;7.10;99.90;;;;;;4948314;28;19910;-77
2022/11/02 02:21:36;;;;;;;;;;;7.00;99.90;;;;;;4953640;28;19914;-77
2022/11/02 02:24:14;;;;;;;;;;;6.90;99.90;;;;;;4958108;28;19918;-77
2022/11/02 02:26:46;;;;;;;;;;;6.70;99.90;;;;;;4955169;28;19914;-77
2022/11/02 02:29:19;;;;;;;;;;;6.80;99.90;;;;;;4942332;28;19911;-77
2022/11/02 02:32:07;;;;;;;;;;;6.80;99.90;;;;;;4952814;28;19922;-77
2022/11/02 02:34:37;;;;;;;;;;;6.90;99.90;;;;;;4945072;28;20651;-77
2022/11/02 02:37:11;;;;;;;;;;;6.80;99.90;;;;;;4946115;28;19973;-77
2022/11/02 02:39:42;;;;;;;;;;;6.80;99.90;;;;;;4932736;28;19974;-76
2022/11/02 02:42:14;;;;;;;;;;;6.80;99.90;;;;;;4940075;28;19911;-76
2022/11/02 02:44:42;;;;;;;;;;;6.80;99.90;;;;;;4939244;28;20373;-77
2022/11/02 02:47:29;;;;;;;;;;;6.80;99.90;;;;;;4954532;28;19957;-76
2022/11/02 02:49:56;;;;;;;;;;;6.70;99.90;;;;;;4953109;28;19996;-77
2022/11/02 02:52:28;;;;;;;;;;;6.80;99.90;;;;;;4952015;28;20501;-77
2022/11/02 02:54:56;;;;;;;;;;;6.80;99.90;;;;;;4939871;29;19918;-77
2022/11/02 02:57:22;;;;;;;;;;;6.80;99.90;;;;;;4947990;29;19910;-77
2022/11/02 02:59:48;;;;;;;;;;;6.80;99.90;;;;;;4952135;28;19929;-77
2022/11/02 03:02:20;;;;;;;;;;;6.80;99.90;;;;;;4952602;28;19910;-77
2022/11/02 03:04:46;;;;;;;;;;;6.90;99.90;;;;;;4934048;28;19911;-77
2022/11/02 03:07:13;;;;;;;;;;;6.80;99.90;;;;;;4936834;28;19914;-76
2022/11/02 03:09:58;;;;;;;;;;;6.90;99.90;;;;;;4951023;28;19922;-76
2022/11/02 03:12:42;;;;;;;;;;;7.00;99.90;;;;;;4939457;28;19910;-76
2022/11/02 03:15:20;;;;;;;;;;;6.90;99.90;;;;;;4957924;28;19910;-76
2022/11/02 03:17:56;;;;;;;;;;;6.80;99.90;;;;;;4934347;29;19934;-76
2022/11/02 03:20:29;;;;;;;;;;;6.80;99.90;;;;;;4963055;28;20324;-76
2022/11/02 03:22:57;;;;;;;;;;;6.70;99.90;;;;;;4955965;28;19920;-77
2022/11/02 03:25:23;;;;;;;;;;;6.70;99.90;;;;;;4947933;29;20008;-77
2022/11/02 03:28:09;;;;;;;;;;;6.80;99.90;;;;;;4952969;28;20022;-77
2022/11/02 03:30:38;;;;;;;;;;;7.00;99.90;;;;;;4945495;28;19978;-77
2022/11/02 03:33:13;;;;;;;;;;;7.10;99.90;;;;;;4945997;28;20354;-77
2022/11/02 03:35:52;;;;;;;;;;;7.40;99.90;;;;;;4948969;28;20332;-77
2022/11/02 03:38:21;;;;;;;;;;;7.60;99.90;;;;;;4953844;28;20376;-77
2022/11/02 03:40:48;;;;;;;;;;;7.70;99.90;;;;;;4946740;29;19969;-77
2022/11/02 03:43:14;;;;;;;;;;;7.50;99.90;;;;;;4945038;28;19917;-77
2022/11/02 03:45:45;;;;;;;;;;;7.50;99.90;;;;;;4951209;28;20026;-77
2022/11/02 03:48:12;;;;;;;;;;;7.60;99.90;;;;;;4949049;28;19910;-77
2022/11/02 03:50:40;;;;;;;;;;;7.60;99.90;;;;;;4949255;28;20383;-77
2022/11/02 03:53:09;;;;;;;;;;;7.60;99.90;;;;;;4957657;28;20361;-77
2022/11/02 03:55:40;;;;;;;;;;;7.50;99.90;;;;;;4963731;28;20403;-77
2022/11/02 03:58:08;;;;;;;;;;;7.50;99.90;;;;;;4942801;29;19907;-76
2022/11/02 04:00:34;;;;;;;;;;;7.50;99.90;;;;;;4951283;29;19937;-77
2022/11/02 04:03:06;;;;;;;;;;;7.50;99.90;;;;;;4949077;28;19915;-77
2022/11/02 04:05:33;;;;;;;;;;;7.60;99.90;;;;;;4946368;28;19917;-77
2022/11/02 04:08:20;;;;;;;;;;;7.60;99.90;;;;;;4961879;28;20357;-77
2022/11/02 04:16:14;;;;;;;;;;;7.60;99.90;;;;;;4953208;28;20452;-76
2022/11/02 04:21:23;;;;;;;;;;;7.60;99.90;;;;;;4960187;28;20011;-77
2022/11/02 04:26:33;;;;;;;;;;;7.70;99.90;;;;;;4946664;28;19921;-77
2022/11/02 04:28:58;;;;;;;;;;;7.60;99.90;;;;;;4952249;28;19911;-77
2022/11/02 04:31:24;;;;;;;;;;;7.50;99.90;;;;;;4946462;28;19925;-77
2022/11/02 04:33:49;;;;;;;;;;;7.70;99.90;;;;;;4953892;28;19926;-78
2022/11/02 04:36:14;;;;;;;;;;;7.60;99.90;;;;;;4963327;28;19914;-76
2022/11/02 04:38:40;;;;;;;;;;;7.80;99.90;;;;;;4951082;29;19914;-76
2022/11/02 04:43:57;;;;;;;;;;;8.00;99.90;;;;;;4932587;29;19914;-77
2022/11/02 04:46:24;;;;;;;;;;;8.00;99.90;;;;;;4933600;29;19914;-76
2022/11/02 04:48:50;;;;;;;;;;;8.10;99.90;;;;;;4933742;29;20358;-77
2022/11/02 04:51:16;;;;;;;;;;;8.10;99.90;;;;;;4937011;29;19916;-76
2022/11/02 04:53:41;;;;;;;;;;;8.10;99.90;;;;;;4952842;28;19956;-76
2022/11/02 04:56:07;;;;;;;;;;;8.20;99.90;;;;;;4952502;28;19907;-77
2022/11/02 04:58:33;;;;;;;;;;;8.10;99.90;;;;;;4952794;28;19910;-76
2022/11/02 05:01:03;;;;;;;;;;;8.10;99.90;;;;;;4952704;29;19914;-76
2022/11/02 05:03:28;;;;;;;;;;;8.10;99.90;;;;;;4953134;29;19907;-77
2022/11/02 05:05:54;;;;;;;;;;;8.00;99.90;;;;;;4952665;29;20376;-76
2022/11/02 05:08:19;;;;;;;;;;;8.00;99.90;;;;;;4951561;28;19917;-76
2022/11/02 05:10:45;;;;;;;;;;;8.00;99.90;;;;;;4952570;28;19906;-76
2022/11/02 05:13:10;;;;;;;;;;;8.10;99.90;;;;;;4952827;29;19942;-77
2022/11/02 05:15:37;;;;;;;;;;;8.20;99.90;;;;;;4952674;29;20396;-75
2022/11/02 05:18:03;;;;;;;;;;;8.20;99.90;;;;;;4952430;28;19910;-76
2022/11/02 05:20:28;;;;;;;;;;;8.10;99.90;;;;;;4952115;28;20324;-77
2022/11/02 05:22:54;;;;;;;;;;;8.00;99.90;;;;;;4951383;28;19910;-76
2022/11/02 05:25:19;;;;;;;;;;;8.10;99.90;;;;;;4952250;28;20404;-76
2022/11/02 05:27:44;;;;;;;;;;;8.10;99.90;;;;;;4952189;28;19957;-76
2022/11/02 05:30:10;;;;;;;;;;;8.10;99.90;;;;;;4952144;28;19919;-77
2022/11/02 05:32:35;;;;;;;;;;;8.00;99.90;;;;;;4952010;29;19910;-76
2022/11/02 05:35:01;;;;;;;;;;;8.00;99.90;;;;;;4952069;29;20374;-76
2022/11/02 05:37:26;;;;;;;;;;;8.20;99.90;;;;;;4952195;29;19906;-77
2022/11/02 05:39:52;;;;;;;;;;;8.20;99.90;;;;;;4952118;29;19985;-75
2022/11/02 05:42:17;;;;;;;;;;;8.20;99.90;;;;;;4950990;28;20059;-77
2022/11/02 05:44:43;;;;;;;;;;;8.20;99.90;;;;;;4951851;29;19919;-76
2022/11/02 05:47:08;;;;;;;;;;;8.30;99.90;;;;;;4952107;29;19937;-76
2022/11/02 05:49:34;;;;;;;;;;;8.40;99.90;;;;;;4952005;29;19906;-76
2022/11/02 05:51:59;;;;;;;;;;;8.30;99.90;;;;;;4951812;28;19942;-76
2022/11/02 05:54:25;;;;;;;;;;;8.30;99.90;;;;;;4951872;29;19957;-76
2022/11/02 05:56:50;;;;;;;;;;;8.30;99.90;;;;;;4951814;29;19914;-76
2022/11/02 05:59:15;;;;;;;;;;;8.30;99.90;;;;;;4949709;28;19913;-76
2022/11/02 06:01:41;;;;;;;;;;;8.30;99.90;;;;;;4951723;28;19979;-76
2022/11/02 06:04:06;;;;;;;;;;;8.30;99.90;;;;;;4951771;29;19913;-77
2022/11/02 06:06:32;;;;;;;;;;;8.30;99.90;;;;;;4951351;29;19914;-76
2022/11/02 06:08:57;;;;;;;;;;;8.30;99.90;;;;;;4950747;28;19969;-76
2022/11/02 06:11:23;;;;;;;;;;;8.20;99.90;;;;;;4951369;29;19912;-76
2022/11/02 06:13:49;;;;;;;;;;;8.40;99.90;;;;;;4951698;29;19910;-76
2022/11/02 06:16:15;;;;;;;;;;;8.30;99.90;;;;;;4950388;28;20308;-76
2022/11/02 06:18:41;;;;;;;;;;;8.40;99.90;;;;;;4951221;29;20013;-77
2022/11/02 06:21:06;;;;;;;;;;;8.40;99.90;;;;;;4951292;29;19910;-77
2022/11/02 06:23:32;;;;;;;;;;;8.40;99.90;;;;;;4951521;29;19906;-76
2022/11/02 06:25:58;;;;;;;;;;;8.20;99.90;;;;;;4951679;29;19928;-76
2022/11/02 06:28:24;;;;;;;;;;;8.40;99.90;;;;;;4951269;28;19969;-76
2022/11/02 06:30:49;;;;;;;;;;;8.50;99.90;;;;;;4949595;28;19918;-76
2022/11/02 06:33:15;;;;;;;;;;;8.60;99.90;;;;;;4951225;28;19913;-76
2022/11/02 06:35:45;;;;;;;;;;;8.50;99.90;;;;;;4950976;29;20058;-76
2022/11/02 06:38:10;;;;;;;;;;;8.50;99.90;;;;;;4951076;29;19921;-76
2022/11/02 06:40:36;;;;;;;;;;;8.70;99.90;;;;;;4950773;28;19910;-76
2022/11/02 06:43:01;;;;;;;;;;;8.60;99.90;;;;;;4951015;28;19906;-76
2022/11/02 06:45:26;;;;;;;;;;;8.70;99.90;;;;;;4950891;28;19906;-76
2022/11/02 06:47:52;;;;;;;;;;;8.80;99.90;;;;;;4948944;28;19926;-77
2022/11/02 06:50:17;;;;;;;;;;;8.80;99.90;;;;;;4950335;29;19961;-76
2022/11/02 06:52:44;;;;;;;;;;;8.90;99.90;;;;;;4949924;28;19993;-76
2022/11/02 06:55:10;;;;;;;;;;;8.90;99.90;;;;;;4950351;29;19954;-76
2022/11/02 06:57:36;;;;;;;;;;;8.90;99.90;;;;;;4949972;29;19906;-76
2022/11/02 07:00:03;;;;;;;;;;;8.90;99.90;;;;;;4950169;28;19918;-76
2022/11/02 07:02:29;;;;;;;;;;;8.90;99.90;;;;;;4948648;28;20296;-76
2022/11/02 07:04:55;;;;;;;;;;;8.90;99.90;;;;;;4950269;29;19906;-76
2022/11/02 07:07:21;;;;;;;;;;;9.00;99.90;;;;;;4950096;28;19910;-76
2022/11/02 07:09:46;;;;;;;;;;;9.00;99.90;;;;;;4950185;29;19906;-76
2022/11/02 07:12:12;;;;;;;;;;;9.00;99.90;;;;;;4950517;28;19953;-76
2022/11/02 07:14:37;;;;;;;;;;;9.00;99.90;;;;;;4949712;28;19936;-76
2022/11/02 07:17:03;;;;;;;;;;;9.10;99.90;;;;;;4948747;28;20128;-76
2022/11/02 07:19:28;;;;;;;;;;;9.20;99.90;;;;;;4939664;28;20441;-76
2022/11/02 07:21:53;;;;;;;;;;;9.30;99.90;;;;;;4930691;29;20369;-76
2022/11/02 07:24:19;;;;;;;;;;;9.30;99.90;;;;;;4931050;29;19914;-76
2022/11/02 07:26:46;;;;;;;;;;;9.40;99.90;;;;;;4930722;29;19907;-76
2022/11/02 07:29:12;;;;;;;;;;;9.50;99.90;;;;;;4930564;29;20369;-76
2022/11/02 07:31:37;;;;;;;;;;;9.70;99.90;;;;;;4930259;29;20052;-76
2022/11/02 07:34:03;;;;;;;;;;;9.80;99.90;;;;;;4930647;29;19911;-76
2022/11/02 07:36:28;;;;;;;;;;;9.90;99.90;;;;;;4945808;28;19911;-76
2022/11/02 07:38:53;;;;;;;;;;;10.10;99.90;;;;;;4949640;29;20398;-76
2022/11/02 07:41:19;;;;;;;;;;;10.20;99.90;;;;;;4949840;29;20154;-76
2022/11/02 07:43:44;;;;;;;;;;;10.40;99.90;;;;;;4949561;28;19961;-76
2022/11/02 07:46:10;;;;;;;;;;;10.50;99.90;;;;;;4949594;28;19907;-77
2022/11/02 07:48:35;;;;;;;;;;;10.60;99.90;;;;;;4949685;29;19918;-77
2022/11/02 07:51:01;;;;;;;;;;;10.80;99.90;;;;;;4948558;28;20415;-76
2022/11/02 07:53:26;;;;;;;;;;;11.00;99.90;;;;;;4949742;29;19911;-76
2022/11/02 07:55:52;;;;;;;;;;;11.10;99.90;;;;;;4949661;28;19921;-76
2022/11/02 07:58:17;;;;;;;;;;;11.20;99.90;;;;;;4949756;29;19906;-76
2022/11/02 08:00:43;;;;;;;;;;;11.20;99.90;;;;;;4949076;29;19961;-76
2022/11/02 08:03:09;;;;;;;;;;;11.30;99.90;;;;;;4949505;29;19907;-76
2022/11/02 08:05:36;;;;;;;;;;;11.30;99.90;;;;;;4949346;29;19961;-76
2022/11/02 08:08:03;;;;;;;;;;;11.40;99.90;;;;;;4948243;28;20395;-76
2022/11/02 08:10:30;;;;;;;;;;;11.40;99.90;;;;;;4949373;28;20009;-76
2022/11/02 08:12:55;;;;;;;;;;;11.30;99.90;;;;;;4949310;29;19910;-77
2022/11/02 08:15:20;;;;;;;;;;;11.30;99.90;;;;;;4949606;29;20005;-76
2022/11/02 08:17:46;;;;;;;;;;;11.40;99.90;;;;;;4949457;29;19918;-76
2022/11/02 08:20:11;;;;;;;;;;;11.40;99.90;;;;;;4949333;29;19914;-76
2022/11/02 08:22:37;;;;;;;;;;;11.60;99.90;;;;;;4948651;28;19917;-76
2022/11/02 08:25:03;;;;;;;;;;;11.70;99.90;;;;;;4948990;29;19910;-76
2022/11/02 08:27:28;;;;;;;;;;;11.90;99.90;;;;;;4948038;28;20025;-75
2022/11/02 08:29:53;;;;;;;;;;;12.00;99.90;;;;;;4948966;28;19919;-76
2022/11/02 08:32:19;;;;;;;;;;;12.00;99.90;;;;;;4950988;28;20530;-76
2022/11/02 08:34:44;;;;;;;;;;;12.00;99.90;;;;;;4952839;29;19914;-76
2022/11/02 08:37:10;;;;;;;;;;;11.90;99.90;;;;;;4950337;28;19911;-76
2022/11/02 08:39:35;;;;;;;;;;;11.80;99.90;;;;;;4952487;28;19906;-74
2022/11/02 08:42:00;;;;;;;;;;;11.90;99.90;;;;;;4952630;29;19910;-76
2022/11/02 08:44:26;;;;;;;;;;;12.00;99.90;;;;;;4952658;29;20317;-76
2022/11/02 08:46:51;;;;;;;;;;;12.00;99.90;;;;;;4952256;29;20285;-77
2022/11/02 08:49:17;;;;;;;;;;;12.00;99.90;;;;;;4952505;29;19914;-75
2022/11/02 08:51:44;;;;;;;;;;;11.70;99.90;;;;;;4952071;28;19910;-74
2022/11/02 08:54:09;;;;;;;;;;;11.50;99.90;;;;;;4951510;28;19938;-77
2022/11/02 08:56:34;;;;;;;;;;;11.30;99.90;;;;;;4952224;29;19969;-75
2022/11/02 08:59:00;;;;;;;;;;;11.20;99.90;;;;;;4952243;29;20215;-76
2022/11/02 09:01:25;;;;;;;;;;;11.20;99.90;;;;;;4952009;28;19917;-75
2022/11/02 09:03:51;;;;;;;;;;;11.40;99.90;;;;;;4952235;29;19965;-75
2022/11/02 09:06:16;;;;;;;;;;;11.50;99.90;;;;;;4952486;29;19907;-75
2022/11/02 09:08:41;;;;;;;;;;;11.70;99.90;;;;;;4951826;29;19906;-76
2022/11/02 09:11:07;;;;;;;;;;;11.80;99.90;;;;;;4950943;28;19937;-76
2022/11/02 09:13:32;;;;;;;;;;;12.10;99.90;;;;;;4951950;28;19914;-76
2022/11/02 09:15:58;;;;;;;;;;;12.20;99.90;;;;;;4952027;29;19910;-76
2022/11/02 09:18:24;;;;;;;;;;;12.40;99.90;;;;;;4951750;29;19913;-76
2022/11/02 09:20:50;;;;;;;;;;;12.70;99.90;;;;;;4951695;28;19911;-76
2022/11/02 09:23:15;;;;;;;;;;;12.70;99.90;;;;;;4940026;28;19984;-76
2022/11/02 09:25:41;;;;;;;;;;;12.80;99.90;;;;;;4952052;28;20399;-75
2022/11/02 09:28:07;;;;;;;;;;;12.90;99.90;;;;;;4952311;29;20269;-75
2022/11/02 09:30:33;;;;;;;;;;;13.00;99.90;;;;;;4952137;28;19954;-75
2022/11/02 09:32:59;;;;;;;;;;;13.00;99.90;;;;;;4952192;29;19934;-76
2022/11/02 09:35:26;;;;;;;;;;;13.10;99.90;;;;;;4952160;29;19907;-76
2022/11/02 09:37:51;;;;;;;;;;;13.20;99.90;;;;;;4951975;29;19907;-75
2022/11/02 09:40:19;;;;;;;;;;;13.20;99.90;;;;;;4950949;29;19914;-76
2022/11/02 09:42:54;;;;;;;;;;;13.30;99.90;;;;;;4951720;28;19906;-75
2022/11/02 09:45:20;;;;;;;;;;;13.40;99.90;;;;;;4951957;29;19953;-76
2022/11/02 09:47:51;;;;;;;;;;;13.50;99.90;;;;;;4951876;29;19949;-76
2022/11/02 09:50:19;;;;;;;;;;;13.50;99.90;;;;;;4951999;29;19961;-74
2022/11/02 09:52:46;;;;;;;;;;;13.60;99.90;;;;;;4949034;29;19910;-76
2022/11/02 09:55:16;;;;;;;;;;;13.70;99.90;;;;;;4950716;29;19927;-75
2022/11/02 09:57:44;;;;;;;;;;;13.80;99.90;;;;;;4950362;29;19918;-75
2022/11/02 10:00:13;;;;;;;;;;;14.00;99.90;;;;;;4950786;29;20152;-76
2022/11/02 10:02:47;;;;;;;;;;;14.10;99.90;;;;;;4950903;28;19907;-75
2022/11/02 10:05:28;;;;;;;;;;;14.30;99.90;;;;;;4950473;29;20363;-75
2022/11/02 10:08:08;;;;;;;;;;;14.20;99.90;;;;;;4950488;29;20717;-77
2022/11/02 10:10:59;;;;;;;;;;;14.20;99.90;;;;;;4950120;29;19910;-75
2022/11/02 10:13:25;;;;;;;;;;;14.20;99.90;;;;;;4950335;28;19913;-75
2022/11/02 10:15:54;;;;;;;;;;;14.40;99.90;;;;;;4950895;29;19907;-76
2022/11/02 10:18:24;;;;;;;;;;;14.40;99.90;;;;;;4950592;28;19949;-76
2022/11/02 10:20:50;;;;;;;;;;;14.60;99.90;;;;;;4950531;28;19922;-76
2022/11/02 10:23:23;;;;;;;;;;;14.60;99.90;;;;;;4950486;29;19906;-76
2022/11/02 10:25:49;;;;;;;;;;;14.60;99.90;;;;;;4950979;28;19914;-76
2022/11/02 10:28:17;;;;;;;;;;;14.60;99.90;;;;;;4947875;29;20183;-76
2022/11/02 10:30:43;;;;;;;;;;;14.60;99.90;;;;;;4949811;28;19958;-77
2022/11/02 10:33:13;;;;;;;;;;;14.70;99.90;;;;;;4950378;29;19961;-76
2022/11/02 10:36:07;;;;;;;;;;;14.80;99.90;;;;;;4950180;29;19907;-76
2022/11/02 10:38:51;;;;;;;;;;;14.90;99.90;;;;;;4948947;29;19910;-75
2022/11/02 10:41:27;;;;;;;;;;;15.70;99.60;;;;;;4949943;29;19910;-75
2022/11/02 10:44:01;;;;;;;;;;;16.30;95.70;;;;;;4950095;29;19910;-75
2022/11/02 10:46:26;;;;;;;;;;;17.10;93.20;;;;;;4950119;29;20484;-76
2022/11/02 10:48:58;;;;;;;;;;;19.10;86.30;;;;;;4949892;29;19989;-76
2022/11/02 10:51:23;;;;;;;;;;;20.40;75.30;;;;;;4949914;29;20343;-75
2022/11/02 10:53:50;;;;;;;;;;;20.70;70.90;;;;;;4950436;28;19906;-76
2022/11/02 10:56:17;;;;;;;;;;;20.40;70.80;;;;;;4948449;28;20214;-76
2022/11/02 10:58:49;;;;;;;;;;;20.90;68.50;;;;;;4949559;28;20329;-75
2022/11/02 11:01:15;;;;;;;;;;;20.40;68.10;;;;;;4937281;28;19910;-76
2022/11/02 11:04:00;;;;;;;;;;;20.30;70.20;;;;;;4949592;29;19981;-76
2022/11/02 11:06:27;;;;;;;;;;;21.80;64.20;;;;;;4949664;29;19906;-76
2022/11/02 11:08:57;;;;;;;;;;;22.40;60.90;;;;;;4949756;29;19910;-76
2022/11/02 11:11:24;;;;;;;;;;;22.20;59.20;;;;;;4949831;29;20057;-76
2022/11/02 11:13:54;;;;;;;;;;;22.00;61.70;;;;;;4947891;28;20072;-76
2022/11/02 11:16:29;;;;;;;;;;;20.20;64.20;;;;;;4940853;29;19906;-76
2022/11/02 11:18:54;;;;;;;;;;;17.90;72.70;;;;;;4949483;29;20140;-75
2022/11/02 11:21:20;;;;;;;;;;;16.60;79.70;;;;;;4948381;28;20440;-76
2022/11/02 11:23:46;;;;;;;;;;;15.90;82.90;;;;;;4949600;28;19910;-77
2022/11/02 11:26:25;;;;;;;;;;;15.70;86.70;;;;;;4949670;28;19986;-76
2022/11/02 11:28:54;;;;;;;;;;;17.00;83.60;;;;;;4949430;29;19913;-76
2022/11/02 11:31:20;;;;;;;;;;;16.50;84.00;;;;;;4949116;28;19958;-76
2022/11/02 11:33:55;;;;;;;;;;;16.00;86.90;;;;;;4945225;28;19948;-76
2022/11/02 11:36:21;;;;;;;;;;;15.70;87.50;;;;;;4945398;29;19910;-76
2022/11/02 11:38:47;;;;;;;;;;;15.50;88.40;;;;;;4950394;29;19906;-75
2022/11/02 11:41:13;;;;;;;;;;;15.80;88.80;;;;;;4950307;29;19917;-75
2022/11/02 11:43:39;;;;;;;;;;;18.00;79.80;;;;;;4945592;28;19910;-76
2022/11/02 11:46:06;;;;;;;;;;;18.10;80.00;;;;;;4941528;28;19917;-77
2022/11/02 11:48:40;;;;;;;;;;;17.00;81.40;;;;;;4943999;28;19965;-78
2022/11/02 11:51:26;;;;;;;;;;;16.10;85.80;;;;;;4952653;28;19925;-77
2022/11/02 11:54:04;;;;;;;;;;;15.50;89.20;;;;;;4950009;28;19910;-79
2022/11/02 11:56:30;;;;;;;;;;;15.20;90.80;;;;;;4941838;28;19949;-79
2022/11/02 11:58:55;;;;;;;;;;;15.20;91.20;;;;;;4932186;29;19926;-80
2022/11/02 12:01:22;;;;;;;;;;;15.40;91.20;;;;;;4950662;28;19914;-78
2022/11/02 12:03:59;;;;;;;;;;;16.50;87.50;;;;;;4950497;28;19998;-76
2022/11/02 12:06:32;;;;;;;;;;;16.80;87.40;;;;;;4948969;28;19973;-77
2022/11/02 12:09:05;;;;;;;;;;;18.70;79.00;;;;;;4954370;28;20352;-75
2022/11/02 12:11:36;;;;;;;;;;;20.50;69.70;;;;;;4961827;28;19910;-79
2022/11/02 12:14:09;;;;;;;;;;;20.00;69.20;;;;;;4942971;28;20009;-78
2022/11/02 12:16:44;;;;;;;;;;;21.10;67.90;;;;;;4959682;28;20033;-80
2022/11/02 12:19:16;;;;;;;;;;;23.30;58.20;;;;;;4960182;28;19914;-80
2022/11/02 12:21:54;;;;;;;;;;;24.30;57.70;;;;;;4958850;28;19926;-81
2022/11/02 12:24:29;;;;;;;;;;;24.70;53.00;;;;;;4949418;29;19950;-83
2022/11/02 12:27:02;;;;;;;;;;;22.40;56.90;;;;;;4940366;28;19911;-80
2022/11/02 12:29:38;;;;;;;;;;;19.80;65.30;;;;;;4932767;29;19954;-79
2022/11/02 12:32:22;;;;;;;;;;;17.70;73.30;;;;;;4945993;28;19961;-79
2022/11/02 12:35:06;;;;;;;;;;;16.40;78.90;;;;;;4934069;29;19915;-82
2022/11/02 12:37:47;;;;;;;;;;;15.90;83.10;;;;;;4933986;29;19954;-80
2022/11/02 12:40:24;;;;;;;;;;;16.10;84.30;;;;;;4939322;28;20384;-80
2022/11/02 12:42:56;;;;;;;;;;;16.70;81.10;;;;;;4933590;29;20293;-84
2022/11/02 12:45:25;;;;;;;;;;;16.70;81.70;;;;;;4933811;29;19913;-79
2022/11/02 12:47:57;;;;;;;;;;;16.40;82.40;;;;;;4933182;29;19907;-81
2022/11/02 12:50:42;;;;;;;;;;;17.80;79.00;;;;;;4944431;29;19915;-79
2022/11/02 12:53:26;;;;;;;;;;;22.30;62.40;;;;;;4945126;29;20440;-80
2022/11/02 12:55:54;;;;;;;;;;;25.30;54.20;;;;;;4933555;29;19945;-79
2022/11/02 12:58:22;;;;;;;;;;;26.90;49.70;;;;;;4951379;28;20037;-80
2022/11/02 13:00:50;;;;;;;;;;;26.80;45.30;;;;;;4948277;28;19915;-80
2022/11/02 13:03:24;;;;;;;;;;;26.30;45.80;;;;;;4933501;29;19907;-81
2022/11/02 13:05:53;;;;;;;;;;;24.90;47.80;;;;;;4933405;29;19933;-83
2022/11/02 13:08:21;;;;;;;;;;;25.40;45.80;;;;;;4950067;29;19907;-81
2022/11/02 13:10:49;;;;;;;;;;;24.60;45.20;;;;;;4945401;29;20015;-78
2022/11/02 13:13:16;;;;;;;;;;;20.90;52.50;;;;;;4940800;28;19914;-82
2022/11/02 13:15:43;;;;;;;;;;;18.60;58.30;;;;;;4940002;28;19911;-79
2022/11/02 13:18:16;;;;;;;;;;;17.80;60.40;;;;;;4951833;28;19910;-79
2022/11/02 13:20:43;;;;;;;;;;;17.50;60.70;;;;;;4951973;29;19914;-77
2022/11/02 13:23:28;;;;;;;;;;;17.20;61.00;;;;;;4950333;28;20379;-79
2022/11/02 13:25:57;;;;;;;;;;;16.80;63.20;;;;;;4939199;29;20274;-82
2022/11/02 13:28:33;;;;;;;;;;;16.80;63.60;;;;;;4932683;29;19951;-79
2022/11/02 13:31:00;;;;;;;;;;;16.30;64.60;;;;;;4934530;28;20467;-81
2022/11/02 13:33:29;;;;;;;;;;;16.10;65.60;;;;;;4951157;28;19914;-80
2022/11/02 13:35:54;;;;;;;;;;;16.00;66.70;;;;;;4941197;28;19917;-83
2022/11/02 13:38:39;;;;;;;;;;;15.80;67.70;;;;;;4952303;28;19911;-81
2022/11/02 13:41:23;;;;;;;;;;;15.60;68.60;;;;;;4951621;29;19920;-81
2022/11/02 13:43:54;;;;;;;;;;;15.20;70.20;;;;;;4950824;29;19906;-83
2022/11/02 13:46:38;;;;;;;;;;;15.00;71.90;;;;;;4933337;29;19914;-80
2022/11/02 13:49:15;;;;;;;;;;;14.80;72.90;;;;;;4932581;29;19918;-80
2022/11/02 13:51:48;;;;;;;;;;;14.80;73.80;;;;;;4938670;28;19993;-81
2022/11/02 13:54:31;;;;;;;;;;;14.90;73.80;;;;;;4951166;28;20492;-79
2022/11/02 13:56:57;;;;;;;;;;;14.90;73.70;;;;;;4939199;29;19907;-80
2022/11/02 13:59:28;;;;;;;;;;;14.80;74.60;;;;;;4937155;29;20053;-80
2022/11/02 14:01:54;;;;;;;;;;;14.80;75.00;;;;;;4951216;28;19914;-78
2022/11/02 14:04:19;;;;;;;;;;;14.90;74.90;;;;;;4945381;29;19910;-80
2022/11/02 14:06:47;;;;;;;;;;;15.10;75.20;;;;;;4940707;29;19910;-79
2022/11/02 14:09:31;;;;;;;;;;;14.90;75.40;;;;;;4947653;28;19914;-81
2022/11/02 14:12:15;;;;;;;;;;;14.80;76.40;;;;;;4949785;29;20446;-80
2022/11/02 14:14:41;;;;;;;;;;;14.90;76.60;;;;;;4949199;29;19914;-80
2022/11/02 14:17:11;;;;;;;;;;;15.20;75.90;;;;;;4951008;28;20005;-80
2022/11/02 14:19:39;;;;;;;;;;;15.20;75.60;;;;;;4951353;29;19910;-79
2022/11/02 14:22:09;;;;;;;;;;;15.00;76.20;;;;;;4950154;29;20001;-83
2022/11/02 14:24:38;;;;;;;;;;;14.80;77.40;;;;;;4935334;28;19911;-79
2022/11/02 14:27:03;;;;;;;;;;;14.90;76.70;;;;;;4938119;28;19915;-79
2022/11/02 14:29:39;;;;;;;;;;;14.60;78.20;;;;;;4936119;29;20344;-80
2022/11/02 14:32:14;;;;;;;;;;;14.40;79.40;;;;;;4931595;29;19910;-80
2022/11/02 14:34:48;;;;;;;;;;;14.30;80.10;;;;;;4938292;29;20385;-80
2022/11/02 14:37:32;;;;;;;;;;;14.30;80.50;;;;;;4931991;29;20031;-80
2022/11/02 14:40:08;;;;;;;;;;;14.30;79.10;;;;;;4931821;29;19934;-81
2022/11/02 14:42:37;;;;;;;;;;;14.20;80.30;;;;;;4931796;29;20002;-79
2022/11/02 14:45:06;;;;;;;;;;;14.20;80.00;;;;;;4939650;28;20278;-79
2022/11/02 14:47:33;;;;;;;;;;;14.10;79.70;;;;;;4931350;29;19997;-81